KMPV/MPV METAR and TAF weather

Enter ICAO airport designator
Station Type Date Time Source
KMPV METAR 2022/06/28 23:51 UTC NOAA

KMPV 282351Z AUTO 30003KT 10SM CLR 21/11 A3019 RMK AO2 SLP223 T02060111 10228 20206 53002


Station Type Date Time Source
KMPV Decoded METAR 2022/06/28 23:51 UTC NOAA

KNAPP STATE AIRPORT, VT, United States (KMPV) 44-12N 072-34W 343M
Jun 28, 2022 - 07:51 PM EDT / 2022.06.28 2351 UTC
Wind: from the WNW (300 degrees) at 3 MPH (3 KT):0
Visibility: 10 mile(s):0
Sky conditions: clear
Temperature: 69.1 F (20.6 C)
Dew Point: 52.0 F (11.1 C)
Relative Humidity: 54%
Pressure (altimeter): 30.19 in. Hg (1022 hPa)
Pressure tendency: 0.01 inches (0.2 hPa) higher than three hours ago
ob: KMPV 282351Z AUTO 30003KT 10SM CLR 21/11 A3019 RMK AO2 SLP223 T02060111 10228 20206 53002
cycle: 0

Station Type Date Time Source
KMPV TAF 2022/06/28 18:36 UTC NOAA

TAF KMPV 281733Z 2818/2918 31007KT P6SM BKN060
FM290000 00000KT P6SM FEW250
FM290600 00000KT 2SM BR SCT001
FM291100 VRB03KT P6SM FEW250
FM291700 22007KT P6SM SCT080

Example: see airport list